Time;durP1;ratioP1;P1;durP2;ratioP2;P2;SDS_P1;SDS_P2;PMS_P1;PMS_P2;Temp;Humidity;BMP_temperature;BMP_pressure;BME280_temperature;BME280_humidity;BME280_pressure;Samples;Min_cycle;Max_cycle;Signal;HPM_P1;HPM_P2
2021/04/27 00:01:30;;;;;;;6.13;1.52;;;8.40;49.20;;;;;;4978162;28;20135;-88
2021/04/27 00:03:56;;;;;;;6.63;1.30;;;8.40;49.50;;;;;;4977775;28;20100;-88
2021/04/27 00:06:22;;;;;;;7.22;1.60;;;8.40;50.10;;;;;;4977664;28;20383;-86
2021/04/27 00:08:47;;;;;;;4.30;1.70;;;8.30;50.10;;;;;;4977943;28;20033;-87
2021/04/27 00:11:14;;;;;;;3.45;1.75;;;8.30;50.20;;;;;;4978018;28;20061;-87
2021/04/27 00:13:40;;;;;;;3.25;1.48;;;8.30;50.00;;;;;;4995307;28;20545;-86
2021/04/27 00:16:06;;;;;;;4.20;1.38;;;8.20;50.20;;;;;;4977702;28;20077;-87
2021/04/27 00:18:31;;;;;;;5.57;1.65;;;8.20;50.30;;;;;;4977820;28;20030;-86
2021/04/27 00:20:57;;;;;;;8.38;1.70;;;8.20;50.20;;;;;;4977660;28;20502;-87
2021/04/27 00:23:23;;;;;;;5.82;1.48;;;8.20;50.80;;;;;;4977386;28;20030;-87
2021/04/27 00:25:49;;;;;;;4.28;1.42;;;8.20;50.60;;;;;;4995616;28;20140;-87
2021/04/27 00:28:15;;;;;;;5.72;1.40;;;8.20;50.90;;;;;;4977705;28;20023;-87
2021/04/27 00:30:40;;;;;;;5.03;1.58;;;8.00;51.10;;;;;;4977333;28;20080;-86
2021/04/27 00:33:07;;;;;;;4.00;1.50;;;7.90;51.70;;;;;;4977042;28;20117;-87
2021/04/27 00:35:33;;;;;;;5.82;1.80;;;7.90;51.40;;;;;;4977753;28;20463;-87
2021/04/27 00:37:59;;;;;;;7.05;1.42;;;7.90;51.60;;;;;;4978174;28;20483;-87
2021/04/27 00:40:26;;;;;;;6.20;1.73;;;7.80;51.20;;;;;;4992728;28;20084;-87
2021/04/27 00:42:52;;;;;;;5.25;1.67;;;7.80;51.30;;;;;;4983099;28;20041;-87
2021/04/27 00:45:24;;;;;;;4.30;1.23;;;7.70;51.90;;;;;;4992912;28;20026;-86
2021/04/27 00:47:51;;;;;;;2.95;1.08;;;7.70;51.90;;;;;;4993075;28;20498;-86
2021/04/27 00:50:21;;;;;;;4.40;1.58;;;7.70;52.30;;;;;;4993067;28;20045;-86
2021/04/27 00:52:47;;;;;;;5.43;1.50;;;7.70;52.50;;;;;;4994372;28;20546;-87
2021/04/27 00:55:14;;;;;;;4.93;1.40;;;7.70;52.70;;;;;;4985255;28;20026;-86
2021/04/27 00:57:41;;;;;;;6.05;1.67;;;7.70;52.30;;;;;;4993651;28;20076;-86
2021/04/27 01:00:16;;;;;;;3.97;1.67;;;7.70;52.60;;;;;;4993048;28;20122;-87
2021/04/27 01:02:41;;;;;;;5.10;1.55;;;7.70;52.80;;;;;;4992297;28;20026;-87
2021/04/27 01:05:13;;;;;;;6.68;1.50;;;7.70;52.40;;;;;;4991887;28;20033;-87
2021/04/27 01:07:49;;;;;;;3.38;1.23;;;7.60;52.90;;;;;;4957193;28;20423;-86
2021/04/27 01:10:20;;;;;;;7.35;1.67;;;7.60;52.80;;;;;;4973398;28;20027;-86
2021/04/27 01:12:54;;;;;;;5.97;1.70;;;7.70;53.70;;;;;;4957416;28;20037;-86
2021/04/27 01:15:23;;;;;;;6.03;1.45;;;7.70;53.10;;;;;;4974602;28;20494;-87
2021/04/27 01:17:51;;;;;;;3.40;1.52;;;7.60;53.40;;;;;;4984904;28;20032;-87
2021/04/27 01:20:33;;;;;;;5.75;1.75;;;7.70;54.50;;;;;;4993123;28;20057;-87
2021/04/27 01:23:18;;;;;;;3.92;1.52;;;7.60;53.30;;;;;;4976804;28;20046;-87
2021/04/27 01:25:53;;;;;;;6.10;1.50;;;7.60;53.50;;;;;;4976404;28;20031;-86
2021/04/27 01:28:20;;;;;;;3.00;1.27;;;7.60;54.20;;;;;;5000634;28;20027;-86
2021/04/27 01:30:47;;;;;;;4.55;1.58;;;7.50;53.70;;;;;;4980923;28;20029;-86
2021/04/27 01:33:16;;;;;;;4.50;1.80;;;7.50;54.20;;;;;;4995442;28;20033;-86
2021/04/27 01:35:43;;;;;;;3.92;1.52;;;7.40;53.90;;;;;;5013894;28;20020;-86
2021/04/27 01:38:09;;;;;;;3.95;1.63;;;7.30;54.00;;;;;;4984341;28;20605;-86
2021/04/27 01:40:34;;;;;;;5.10;1.70;;;7.30;55.10;;;;;;4976395;28;20030;-86
2021/04/27 01:43:03;;;;;;;3.88;1.40;;;7.30;55.40;;;;;;4976033;28;20026;-86
2021/04/27 01:45:30;;;;;;;4.70;1.55;;;7.20;55.00;;;;;;4976681;28;20061;-86
2021/04/27 01:48:00;;;;;;;3.53;1.33;;;7.30;54.70;;;;;;4976688;28;20090;-86
2021/04/27 01:50:27;;;;;;;4.22;1.55;;;7.20;54.70;;;;;;5009026;28;20022;-86
2021/04/27 01:52:54;;;;;;;5.70;2.17;;;7.10;55.00;;;;;;5009198;28;20026;-86
2021/04/27 01:55:20;;;;;;;6.07;1.60;;;7.00;55.20;;;;;;5009307;28;20610;-86
2021/04/27 01:57:47;;;;;;;4.35;1.40;;;7.10;56.10;;;;;;5009393;28;20090;-86
2021/04/27 02:00:16;;;;;;;3.80;1.55;;;7.10;55.40;;;;;;4979285;28;20035;-86
2021/04/27 02:02:45;;;;;;;3.65;1.92;;;6.90;55.90;;;;;;4973172;28;20038;-86
2021/04/27 02:05:12;;;;;;;3.63;1.50;;;6.90;55.90;;;;;;4974477;28;20031;-86
2021/04/27 02:07:38;;;;;;;4.13;1.50;;;6.90;55.80;;;;;;4977637;28;20023;-86
2021/04/27 02:10:10;;;;;;;3.60;1.42;;;6.80;56.00;;;;;;4979927;28;20026;-86
2021/04/27 02:12:38;;;;;;;;;;;6.90;56.80;;;;;;4981377;28;20376;-87
2021/04/27 02:15:05;;;;;;;6.45;1.60;;;6.80;56.60;;;;;;4981507;28;20352;-86
2021/04/27 02:17:41;;;;;;;5.22;2.00;;;6.70;56.50;;;;;;4981130;28;20061;-86
2021/04/27 02:20:08;;;;;;;5.18;1.80;;;6.60;56.90;;;;;;4981172;28;20041;-86
2021/04/27 02:22:34;;;;;;;7.05;1.60;;;6.50;57.10;;;;;;4980504;28;20118;-85
2021/04/27 02:25:00;;;;;;;4.22;1.70;;;6.50;57.60;;;;;;4996406;28;20515;-86
2021/04/27 02:27:26;;;;;;;5.10;2.00;;;6.60;57.70;;;;;;5013539;28;20394;-87
2021/04/27 02:29:53;;;;;;;7.35;1.45;;;6.50;57.40;;;;;;5013533;28;20022;-86
2021/04/27 02:32:20;;;;;;;5.82;1.70;;;6.60;58.00;;;;;;5013108;28;20118;-86
2021/04/27 02:34:47;;;;;;;7.30;1.88;;;6.50;57.60;;;;;;4999346;28;20125;-85
2021/04/27 02:37:15;;;;;;;9.23;2.03;;;6.60;58.00;;;;;;4998867;28;20022;-86
2021/04/27 02:39:41;;;;;;;4.25;1.55;;;6.60;58.20;;;;;;4997091;28;20026;-86
2021/04/27 02:42:07;;;;;;;6.70;2.20;;;6.60;58.10;;;;;;4997138;28;20125;-86
2021/04/27 02:44:33;;;;;;;5.65;2.10;;;6.60;58.30;;;;;;4996322;28;20019;-86
2021/04/27 02:46:59;;;;;;;5.68;1.67;;;6.60;58.20;;;;;;4996536;28;20348;-86
2021/04/27 02:49:24;;;;;;;4.63;1.60;;;6.60;58.00;;;;;;4996902;28;20022;-86
2021/04/27 02:51:50;;;;;;;6.13;1.88;;;6.60;58.50;;;;;;4997702;28;20373;-86
2021/04/27 02:54:16;;;;;;;4.20;1.80;;;6.60;58.50;;;;;;4980364;28;20030;-86
2021/04/27 02:56:41;;;;;;;5.90;1.83;;;6.60;58.60;;;;;;4980224;28;20053;-86
2021/04/27 02:59:07;;;;;;;4.70;1.80;;;6.50;58.10;;;;;;4980513;28;20042;-86
2021/04/27 03:01:34;;;;;;;4.97;2.08;;;6.50;58.50;;;;;;4980312;28;20033;-86
2021/04/27 03:04:00;;;;;;;7.72;2.00;;;6.50;58.90;;;;;;4980179;28;20506;-86
2021/04/27 03:06:26;;;;;;;5.53;1.73;;;6.40;58.50;;;;;;4980498;28;20023;-86
2021/04/27 03:08:51;;;;;;;4.13;1.60;;;6.40;58.70;;;;;;4980171;28;20126;-86
2021/04/27 03:11:17;;;;;;;4.00;1.73;;;6.40;59.10;;;;;;4977028;28;20058;-86
2021/04/27 03:13:43;;;;;;;6.53;1.80;;;6.40;59.50;;;;;;4982010;28;20030;-86
2021/04/27 03:16:09;;;;;;;5.38;1.50;;;6.50;58.60;;;;;;4982420;28;20022;-86
2021/04/27 03:18:35;;;;;;;3.88;1.55;;;6.50;59.60;;;;;;4980215;28;20030;-86
2021/04/27 03:21:00;;;;;;;4.50;1.50;;;6.40;59.40;;;;;;4979782;28;20022;-86
2021/04/27 03:23:26;;;;;;;3.53;1.50;;;6.40;58.70;;;;;;4979626;28;20502;-86
2021/04/27 03:25:52;;;;;;;5.90;1.75;;;6.50;59.40;;;;;;4979575;28;20559;-86
2021/04/27 03:28:18;;;;;;;6.38;1.70;;;6.50;59.20;;;;;;4997230;28;20022;-86
2021/04/27 03:30:44;;;;;;;4.97;1.80;;;6.40;59.30;;;;;;4979654;28;20018;-86
2021/04/27 03:33:09;;;;;;;6.70;1.80;;;6.40;59.30;;;;;;4979781;28;20514;-86
2021/04/27 03:35:35;;;;;;;5.63;1.80;;;6.40;59.20;;;;;;4979772;28;20321;-85
2021/04/27 03:38:01;;;;;;;4.80;1.63;;;6.30;59.70;;;;;;4979890;28;20036;-86
2021/04/27 03:40:26;;;;;;;6.80;2.30;;;6.20;60.10;;;;;;4979923;28;20034;-86
2021/04/27 03:42:52;;;;;;;5.78;1.98;;;6.10;60.30;;;;;;4979885;28;20065;-86
2021/04/27 03:45:34;;;;;;;6.80;2.05;;;6.10;60.60;;;;;;4979087;28;20037;-86
2021/04/27 03:48:00;;;;;;;5.57;2.15;;;6.00;60.90;;;;;;4997509;28;20030;-85
2021/04/27 03:50:26;;;;;;;5.40;1.85;;;6.00;60.90;;;;;;5012785;28;20034;-86
2021/04/27 03:52:51;;;;;;;4.88;1.63;;;6.00;61.10;;;;;;5011152;28;20065;-86
2021/04/27 03:55:17;;;;;;;4.53;1.63;;;6.00;61.40;;;;;;4979820;28;20038;-86
2021/04/27 03:57:43;;;;;;;4.82;2.30;;;6.00;61.20;;;;;;4978884;28;20081;-85
2021/04/27 04:00:09;;;;;;;4.50;1.88;;;6.00;61.00;;;;;;4997610;28;20030;-86
2021/04/27 04:02:34;;;;;;;6.75;2.00;;;5.90;61.20;;;;;;4993119;28;20038;-85
2021/04/27 04:05:00;;;;;;;5.78;1.92;;;5.90;61.60;;;;;;5001049;23;20049;-86
2021/04/27 04:07:26;;;;;;;8.82;1.90;;;5.90;61.70;;;;;;4992493;28;20077;-86
2021/04/27 04:09:52;;;;;;;5.18;1.77;;;5.80;61.90;;;;;;5012316;28;20045;-84
2021/04/27 04:12:17;;;;;;;4.35;1.58;;;5.90;62.10;;;;;;5011742;28;20033;-85
2021/04/27 04:14:43;;;;;;;4.88;1.67;;;5.90;61.80;;;;;;5011744;28;20053;-86
2021/04/27 04:17:09;;;;;;;5.13;1.95;;;5.80;62.00;;;;;;5011555;28;20029;-85
2021/04/27 04:19:35;;;;;;;7.68;2.00;;;5.80;62.30;;;;;;5011931;28;20089;-86
2021/04/27 04:22:04;;;;;;;4.87;1.90;;;5.80;62.50;;;;;;5011555;28;20031;-86
2021/04/27 04:24:29;;;;;;;5.20;1.88;;;5.80;63.70;;;;;;4978175;28;20446;-86
2021/04/27 04:26:55;;;;;;;5.07;2.10;;;5.90;63.40;;;;;;4976511;28;20050;-85
2021/04/27 04:29:24;;;;;;;5.03;1.63;;;5.90;62.70;;;;;;4976274;28;20026;-85
2021/04/27 04:31:49;;;;;;;5.00;1.92;;;5.90;63.30;;;;;;4958970;28;20037;-86
2021/04/27 04:34:15;;;;;;;9.35;2.00;;;5.90;63.40;;;;;;4956765;28;20022;-85
2021/04/27 04:36:42;;;;;;;4.55;1.83;;;5.90;63.20;;;;;;4957160;28;20031;-85
2021/04/27 04:39:08;;;;;;;4.03;1.73;;;5.80;62.90;;;;;;4963161;28;20117;-86
2021/04/27 04:41:34;;;;;;;6.32;1.90;;;5.90;63.30;;;;;;4978278;28;20050;-85
2021/04/27 04:44:00;;;;;;;5.33;1.70;;;5.80;63.50;;;;;;4978796;28;20019;-86
2021/04/27 04:46:26;;;;;;;5.20;1.73;;;5.80;63.60;;;;;;4978731;28;20022;-86
2021/04/27 04:48:51;;;;;;;8.87;2.13;;;5.60;64.00;;;;;;4978597;28;20121;-86
2021/04/27 04:51:17;;;;;;;9.55;2.35;;;5.70;64.40;;;;;;4993857;28;20027;-86
2021/04/27 04:53:42;;;;;;;4.55;1.80;;;5.70;64.30;;;;;;4978108;28;20022;-86
2021/04/27 04:56:08;;;;;;;6.55;2.10;;;5.70;64.80;;;;;;4978132;28;20037;-86
2021/04/27 04:58:34;;;;;;;7.90;3.80;;;5.80;64.50;;;;;;4974218;28;20031;-86
2021/04/27 05:00:59;;;;;;;6.53;2.53;;;5.80;64.30;;;;;;4977057;28;20027;-86
2021/04/27 05:03:26;;;;;;;6.85;2.72;;;5.80;64.50;;;;;;4977331;28;20027;-86
2021/04/27 05:05:51;;;;;;;7.40;2.35;;;5.80;64.40;;;;;;4959558;28;20460;-86
2021/04/27 05:08:25;;;;;;;7.18;2.22;;;5.80;65.00;;;;;;4977570;28;20022;-85
2021/04/27 05:10:50;;;;;;;5.00;1.73;;;5.80;65.00;;;;;;4987217;28;20045;-85
2021/04/27 05:13:16;;;;;;;7.00;2.08;;;5.90;64.80;;;;;;4989318;28;20475;-86
2021/04/27 05:15:42;;;;;;;8.32;2.60;;;6.00;64.50;;;;;;4993266;28;20064;-85
2021/04/27 05:18:08;;;;;;;8.77;2.00;;;6.00;64.40;;;;;;5000525;28;20061;-86
2021/04/27 05:20:34;;;;;;;4.35;1.85;;;5.90;64.60;;;;;;4996391;28;20202;-86
2021/04/27 05:23:01;;;;;;;5.43;1.77;;;5.90;65.00;;;;;;4998023;28;20108;-86
2021/04/27 05:25:28;;;;;;;4.85;1.65;;;6.00;64.60;;;;;;4992568;28;20043;-85
2021/04/27 05:27:54;;;;;;;5.70;2.22;;;6.00;64.80;;;;;;4991850;28;20446;-85
2021/04/27 05:30:20;;;;;;;6.57;1.83;;;6.00;64.90;;;;;;4995328;28;20022;-85
2021/04/27 05:32:45;;;;;;;9.97;2.13;;;6.00;64.70;;;;;;5000092;28;20027;-85
2021/04/27 05:35:11;;;;;;;4.10;1.85;;;5.90;64.80;;;;;;4975564;28;20471;-86
2021/04/27 05:37:37;;;;;;;5.83;2.30;;;6.00;64.60;;;;;;4991860;28;20027;-85
2021/04/27 05:40:04;;;;;;;5.22;1.85;;;6.00;64.50;;;;;;4991878;28;20029;-86
2021/04/27 05:42:30;;;;;;;5.73;2.13;;;6.10;64.80;;;;;;4991615;28;20069;-85
2021/04/27 05:44:56;;;;;;;6.00;2.33;;;6.30;65.30;;;;;;4996191;28;20049;-85
2021/04/27 05:47:22;;;;;;;6.00;2.10;;;6.40;63.90;;;;;;4986783;28;20443;-86
2021/04/27 05:49:48;;;;;;;4.93;2.08;;;6.50;63.90;;;;;;4998001;28;20038;-85
2021/04/27 05:52:14;;;;;;;4.82;2.00;;;6.50;63.70;;;;;;4995968;28;20053;-86
2021/04/27 05:54:39;;;;;;;4.90;2.20;;;6.50;63.70;;;;;;4987510;28;20023;-86
2021/04/27 05:57:05;;;;;;;8.15;2.63;;;6.70;63.50;;;;;;4999072;28;20023;-86
2021/04/27 05:59:31;;;;;;;8.90;2.55;;;6.80;63.00;;;;;;4994103;28;20022;-86
2021/04/27 06:01:57;;;;;;;8.10;2.30;;;7.00;62.70;;;;;;4978463;28;20289;-85
2021/04/27 06:04:22;;;;;;;5.28;2.28;;;7.10;62.80;;;;;;4969631;28;20026;-85
2021/04/27 06:06:48;;;;;;;10.50;2.50;;;7.20;61.90;;;;;;4984643;28;20038;-86
2021/04/27 06:09:16;;;;;;;7.28;2.50;;;7.30;61.90;;;;;;4978121;28;20034;-85
2021/04/27 06:11:43;;;;;;;9.43;2.35;;;7.50;61.70;;;;;;4992533;28;20025;-86
2021/04/27 06:14:09;;;;;;;8.05;2.47;;;7.60;61.50;;;;;;4976378;28;20045;-86
2021/04/27 06:16:35;;;;;;;7.03;2.70;;;7.80;61.00;;;;;;4988494;28;20046;-86
2021/04/27 06:19:02;;;;;;;5.88;2.85;;;7.80;60.50;;;;;;4975641;28;20451;-86
2021/04/27 06:21:29;;;;;;;7.72;2.33;;;7.90;60.60;;;;;;4976734;28;20034;-86
2021/04/27 06:24:00;;;;;;;6.90;2.50;;;7.90;60.50;;;;;;4992842;28;21505;-86
2021/04/27 06:26:28;;;;;;;9.23;2.15;;;8.10;60.60;;;;;;4976704;28;20105;-86
2021/04/27 06:28:54;;;;;;;9.73;2.70;;;8.10;60.50;;;;;;4973391;28;20036;-86
2021/04/27 06:31:20;;;;;;;5.90;2.63;;;8.40;61.10;;;;;;4980102;28;20026;-85
2021/04/27 06:33:45;;;;;;;6.47;2.65;;;8.10;60.60;;;;;;4977158;28;20061;-86
2021/04/27 06:36:13;;;;;;;9.00;2.70;;;8.40;60.70;;;;;;4990920;28;20513;-86
2021/04/27 06:38:38;;;;;;;7.82;2.83;;;8.40;60.40;;;;;;4973596;28;20034;-85
2021/04/27 06:41:04;;;;;;;7.40;2.90;;;8.40;60.30;;;;;;4988011;28;20022;-86
2021/04/27 06:43:30;;;;;;;7.13;2.70;;;8.50;60.70;;;;;;4973006;28;20019;-85
2021/04/27 06:45:56;;;;;;;7.10;2.63;;;8.70;60.10;;;;;;4989076;28;20520;-85
2021/04/27 06:48:21;;;;;;;7.32;3.10;;;8.80;59.10;;;;;;4990384;28;20022;-85
2021/04/27 06:50:47;;;;;;;6.47;3.28;;;8.70;59.20;;;;;;4991982;28;20053;-84
2021/04/27 06:53:13;;;;;;;6.93;3.08;;;8.90;60.10;;;;;;4981487;28;20494;-84
2021/04/27 06:55:39;;;;;;;7.65;2.90;;;8.90;59.20;;;;;;4988893;28;20102;-85
2021/04/27 06:58:07;;;;;;;10.77;3.00;;;9.00;58.80;;;;;;4991834;28;20123;-84
2021/04/27 07:00:34;;;;;;;8.02;3.53;;;9.20;58.70;;;;;;4994981;28;20116;-84
2021/04/27 07:03:00;;;;;;;7.25;3.08;;;9.30;57.90;;;;;;4974649;28;20057;-85
2021/04/27 07:05:27;;;;;;;6.82;2.50;;;9.40;58.40;;;;;;4989910;28;20065;-84
2021/04/27 07:07:53;;;;;;;6.88;3.03;;;9.20;58.00;;;;;;4989030;28;20019;-84
2021/04/27 07:10:19;;;;;;;9.85;3.20;;;9.30;58.20;;;;;;4979886;28;20168;-83
2021/04/27 07:12:45;;;;;;;6.53;3.08;;;9.20;57.90;;;;;;4982986;28;20046;-85
2021/04/27 07:15:11;;;;;;;7.70;2.90;;;9.30;58.70;;;;;;5002428;28;20030;-85
2021/04/27 07:17:38;;;;;;;7.30;2.83;;;9.40;58.30;;;;;;4996146;28;20605;-84
2021/04/27 07:20:05;;;;;;;8.35;3.22;;;9.50;57.50;;;;;;4995580;28;20045;-84
2021/04/27 07:22:31;;;;;;;8.82;3.20;;;9.70;57.60;;;;;;4992830;28;20545;-85
2021/04/27 07:24:57;;;;;;;10.95;3.10;;;9.90;56.70;;;;;;4979855;28;20018;-85
2021/04/27 07:27:23;;;;;;;8.35;2.90;;;9.90;56.80;;;;;;4992179;28;20153;-84
2021/04/27 07:29:49;;;;;;;7.45;2.95;;;10.00;56.60;;;;;;4979205;28;20022;-85
2021/04/27 07:32:15;;;;;;;6.55;2.67;;;10.00;56.80;;;;;;4981330;28;20030;-85
2021/04/27 07:34:42;;;;;;;5.93;2.92;;;10.20;56.30;;;;;;4991659;28;20400;-84
2021/04/27 07:37:09;;;;;;;5.70;2.95;;;10.30;56.60;;;;;;4993439;28;20038;-85
2021/04/27 07:39:35;;;;;;;9.18;3.05;;;10.60;56.60;;;;;;4974647;28;20026;-85
2021/04/27 07:42:01;;;;;;;7.70;3.03;;;10.70;56.50;;;;;;4989836;28;20029;-83
2021/04/27 07:44:27;;;;;;;6.95;2.97;;;10.50;55.60;;;;;;4994689;28;20106;-83
2021/04/27 07:46:53;;;;;;;6.55;3.35;;;10.50;55.60;;;;;;4972997;28;20050;-83
2021/04/27 07:49:21;;;;;;;7.10;3.05;;;10.60;55.70;;;;;;4976576;28;20038;-86
2021/04/27 07:51:47;;;;;;;6.88;2.85;;;10.60;55.50;;;;;;4992694;28;20184;-83
2021/04/27 07:54:13;;;;;;;6.55;2.65;;;10.60;55.50;;;;;;4995884;28;20479;-82
2021/04/27 07:56:38;;;;;;;6.03;3.13;;;10.70;55.20;;;;;;4994087;28;20554;-83
2021/04/27 07:59:05;;;;;;;8.38;3.85;;;10.90;54.80;;;;;;4992782;28;20030;-84
2021/04/27 08:01:35;;;;;;;5.72;3.17;;;11.00;54.80;;;;;;4994645;28;20027;-83
2021/04/27 08:04:02;;;;;;;6.70;3.55;;;11.10;54.70;;;;;;4992413;28;20037;-84
2021/04/27 08:06:28;;;;;;;7.30;3.55;;;11.00;54.60;;;;;;4994928;28;20030;-84
2021/04/27 08:08:54;;;;;;;10.23;3.53;;;11.10;55.20;;;;;;4977943;28;20081;-83
2021/04/27 08:11:20;;;;;;;6.47;3.22;;;11.30;56.20;;;;;;4995974;28;20030;-83
2021/04/27 08:13:45;;;;;;;7.32;2.97;;;11.50;54.90;;;;;;4977274;28;20061;-84
2021/04/27 08:16:12;;;;;;;8.40;3.95;;;11.60;54.40;;;;;;4977319;28;20056;-84
2021/04/27 08:18:38;;;;;;;6.93;3.65;;;11.70;53.80;;;;;;4994442;28;20085;-83
2021/04/27 08:21:05;;;;;;;7.93;4.07;;;11.90;53.80;;;;;;4993174;28;20118;-83
2021/04/27 08:23:31;;;;;;;9.27;3.70;;;11.90;52.90;;;;;;4994095;28;20124;-84
2021/04/27 08:25:58;;;;;;;9.30;3.70;;;12.10;52.20;;;;;;4991555;28;20502;-84
2021/04/27 08:28:24;;;;;;;7.30;3.78;;;12.30;52.60;;;;;;4994519;28;20065;-83
2021/04/27 08:30:50;;;;;;;7.72;3.80;;;12.20;52.70;;;;;;4996235;28;20027;-84
2021/04/27 08:33:16;;;;;;;6.68;3.53;;;12.20;53.20;;;;;;4993044;28;20026;-83
2021/04/27 08:35:42;;;;;;;9.05;3.80;;;12.30;52.30;;;;;;4993980;28;20121;-84
2021/04/27 08:38:07;;;;;;;6.90;3.42;;;12.30;52.70;;;;;;4974190;28;20057;-84
2021/04/27 08:40:33;;;;;;;11.38;3.80;;;12.20;52.40;;;;;;4991453;28;20506;-84
2021/04/27 08:42:59;;;;;;;9.30;3.50;;;12.40;52.20;;;;;;4972133;28;20041;-84
2021/04/27 08:45:25;;;;;;;6.97;3.25;;;12.60;51.90;;;;;;4993941;28;20446;-83
2021/04/27 08:47:51;;;;;;;8.82;3.72;;;12.60;51.80;;;;;;4991418;28;20079;-84
2021/04/27 08:50:18;;;;;;;9.25;4.00;;;12.50;51.50;;;;;;4994940;28;20023;-84
2021/04/27 08:52:44;;;;;;;7.82;3.97;;;12.80;52.20;;;;;;4993812;28;20089;-84
2021/04/27 08:55:10;;;;;;;8.82;4.00;;;12.90;51.40;;;;;;4989730;28;20026;-83
2021/04/27 08:57:37;;;;;;;7.65;3.75;;;13.10;51.20;;;;;;4993572;28;20179;-84
2021/04/27 09:00:18;;;;;;;9.38;4.10;;;13.10;50.80;;;;;;4994497;28;20022;-84
2021/04/27 09:02:52;;;;;;;10.40;3.85;;;13.10;51.10;;;;;;4994244;28;20026;-84
2021/04/27 09:05:21;;;;;;;10.23;4.05;;;13.10;51.20;;;;;;4994232;28;20033;-84
2021/04/27 09:07:47;;;;;;;5.50;3.47;;;13.30;51.30;;;;;;4995453;28;20050;-85
2021/04/27 09:10:25;;;;;;;7.68;3.75;;;13.40;51.50;;;;;;4978149;28;20471;-83
2021/04/27 09:12:54;;;;;;;9.23;4.00;;;13.60;50.80;;;;;;4992538;28;20106;-84
2021/04/27 09:15:34;;;;;;;7.38;3.90;;;13.70;50.00;;;;;;4993202;28;20387;-85
2021/04/27 09:18:19;;;;;;;8.60;4.85;;;13.40;50.30;;;;;;4976757;28;20463;-84
2021/04/27 09:20:53;;;;;;;7.82;4.25;;;13.60;50.80;;;;;;4990770;28;20041;-83
2021/04/27 09:23:19;;;;;;;8.68;3.90;;;13.80;49.60;;;;;;4976850;28;20026;-85
2021/04/27 09:26:14;;;;;;;11.32;4.60;;;13.90;50.20;;;;;;4990040;28;20034;-83
2021/04/27 09:28:47;;;;;;;8.15;4.30;;;14.00;49.80;;;;;;4972376;28;20040;-85
2021/04/27 09:31:24;;;;;;;7.80;4.18;;;14.20;49.60;;;;;;4990512;28;20108;-85
2021/04/27 09:33:51;;;;;;;8.40;4.40;;;14.30;50.40;;;;;;4969514;28;20030;-84
2021/04/27 09:36:22;;;;;;;10.70;5.80;;;14.60;49.90;;;;;;4973878;28;20032;-84
2021/04/27 09:38:51;;;;;;;10.03;6.57;;;14.80;49.00;;;;;;4974149;28;20522;-84
2021/04/27 09:41:22;;;;;;;9.27;5.15;;;14.80;48.40;;;;;;4993000;28;20280;-84
2021/04/27 09:43:49;;;;;;;8.18;4.93;;;14.40;49.10;;;;;;4976137;28;20026;-84
2021/04/27 09:46:17;;;;;;;8.93;4.47;;;14.30;49.20;;;;;;4993391;28;20113;-83
2021/04/27 09:48:44;;;;;;;10.23;4.65;;;14.40;49.80;;;;;;4992705;28;20022;-85
2021/04/27 09:51:12;;;;;;;9.65;4.90;;;14.50;49.30;;;;;;4979329;28;20018;-84
2021/04/27 09:53:49;;;;;;;9.10;4.57;;;14.50;49.20;;;;;;4990760;28;20156;-84
2021/04/27 09:56:35;;;;;;;7.00;4.38;;;14.60;49.10;;;;;;4972969;28;20029;-85
2021/04/27 09:59:09;;;;;;;9.18;5.10;;;14.80;49.00;;;;;;4984903;28;20030;-85
2021/04/27 10:01:38;;;;;;;7.78;4.40;;;14.90;48.70;;;;;;4985670;28;20062;-85
2021/04/27 10:04:04;;;;;;;10.10;4.68;;;14.90;49.00;;;;;;4986020;28;20101;-85
2021/04/27 10:06:30;;;;;;;9.13;4.82;;;15.10;48.70;;;;;;4985653;28;20119;-85
2021/04/27 10:08:59;;;;;;;9.93;5.57;;;15.00;48.10;;;;;;4971912;28;20101;-85
2021/04/27 10:11:26;;;;;;;10.20;4.68;;;15.20;49.00;;;;;;4989895;28;20109;-84
2021/04/27 10:13:53;;;;;;;11.02;4.95;;;15.50;48.60;;;;;;4973479;28;20026;-84
2021/04/27 10:16:20;;;;;;;9.10;5.07;;;15.40;47.50;;;;;;4989594;28;20035;-86
2021/04/27 10:18:46;;;;;;;9.85;4.80;;;15.40;47.20;;;;;;4976415;28;20480;-86
2021/04/27 10:21:12;;;;;;;11.60;4.97;;;15.50;48.30;;;;;;4987689;28;20028;-86
2021/04/27 10:23:47;;;;;;;12.38;5.82;;;15.80;48.10;;;;;;4985651;28;20022;-86
2021/04/27 10:26:13;;;;;;;7.72;4.80;;;15.90;47.00;;;;;;4990323;28;20480;-85
2021/04/27 10:29:20;;;;;;;10.02;5.65;;;16.00;47.10;;;;;;4991873;28;20026;-85
2021/04/27 10:31:48;;;;;;;12.57;5.93;;;16.10;46.70;;;;;;4984311;28;20109;-86
2021/04/27 10:34:17;;;;;;;9.82;4.88;;;16.00;46.30;;;;;;4993478;28;20028;-86
2021/04/27 10:36:49;;;;;;;9.38;5.13;;;15.90;47.60;;;;;;4974970;28;20033;-86
2021/04/27 10:39:16;;;;;;;8.93;5.53;;;16.10;47.00;;;;;;4993347;28;20058;-85
2021/04/27 10:41:41;;;;;;;8.73;5.65;;;16.20;47.20;;;;;;4994063;28;20037;-85
2021/04/27 10:44:07;;;;;;;9.93;5.00;;;16.70;46.60;;;;;;4994667;28;20031;-85
2021/04/27 10:46:36;;;;;;;11.50;5.45;;;17.00;44.80;;;;;;4995182;28;20128;-87
2021/04/27 10:49:23;;;;;;;8.25;5.63;;;17.20;44.40;;;;;;4993347;28;20110;-86
2021/04/27 10:51:51;;;;;;;9.32;5.80;;;17.10;44.60;;;;;;4992479;28;20101;-86
2021/04/27 10:54:16;;;;;;;10.68;5.78;;;17.10;43.90;;;;;;4993129;28;20396;-86
2021/04/27 10:56:50;;;;;;;11.50;6.20;;;17.00;43.60;;;;;;4993707;28;20615;-86
2021/04/27 10:59:24;;;;;;;9.30;5.15;;;17.20;44.20;;;;;;4989905;28;20111;-87
2021/04/27 11:02:10;;;;;;;9.07;5.55;;;17.60;42.80;;;;;;4984171;28;20113;-86
2021/04/27 11:04:45;;;;;;;8.70;5.28;;;18.00;41.10;;;;;;4982420;28;20027;-87
2021/04/27 11:07:20;;;;;;;8.57;5.32;;;18.00;42.80;;;;;;4968611;28;20498;-87
2021/04/27 11:09:58;;;;;;;10.73;5.72;;;18.20;42.90;;;;;;4973303;28;20383;-86
2021/04/27 11:12:42;;;;;;;9.85;5.30;;;18.00;40.70;;;;;;4975019;28;20038;-88
2021/04/27 11:15:10;;;;;;;10.45;5.03;;;18.00;40.90;;;;;;4977733;28;20033;-88
2021/04/27 11:17:40;;;;;;;8.57;5.03;;;18.30;42.30;;;;;;4983998;28;20026;-87
2021/04/27 11:20:09;;;;;;;8.03;5.00;;;18.60;41.80;;;;;;5003241;28;20027;-87
2021/04/27 11:22:36;;;;;;;9.90;5.40;;;18.60;40.10;;;;;;4989766;28;20034;-88
2021/04/27 11:25:04;;;;;;;8.30;5.30;;;18.40;39.50;;;;;;4975119;28;20476;-87
2021/04/27 11:27:33;;;;;;;8.07;5.03;;;18.30;38.90;;;;;;4972471;28;20038;-87
2021/04/27 11:30:32;;;;;;;12.18;5.00;;;18.60;38.70;;;;;;4985278;28;20038;-86
2021/04/27 11:33:06;;;;;;;9.07;5.00;;;18.90;38.90;;;;;;4971242;28;20073;-88
2021/04/27 11:36:10;;;;;;;10.95;5.22;;;19.10;39.00;;;;;;4992620;28;20023;-87
2021/04/27 11:52:40;;;;;;;8.57;5.60;;;19.00;39.30;;;;;;4923408;29;20647;-84
2021/04/27 11:55:25;;;;;;;12.05;6.60;;;19.60;38.80;;;;;;4929908;29;20391;-86
2021/04/27 11:57:59;;;;;;;10.10;6.13;;;19.80;37.30;;;;;;4940351;28;20557;-86
2021/04/27 12:00:41;;;;;;;8.38;5.60;;;19.80;38.00;;;;;;4974594;28;20417;-86
2021/04/27 12:03:26;;;;;;;8.90;5.45;;;20.10;35.80;;;;;;4975827;28;20030;-88
2021/04/27 12:05:53;;;;;;;13.07;5.82;;;20.20;36.20;;;;;;4977273;28;20090;-86
2021/04/27 12:08:26;;;;;;;11.65;6.60;;;20.30;37.00;;;;;;4990362;28;20232;-86
2021/04/27 12:11:15;;;;;;;10.95;5.88;;;20.60;37.10;;;;;;4976265;28;20049;-87
2021/04/27 12:13:58;;;;;;;10.10;6.53;;;20.90;36.20;;;;;;4981577;28;20144;-86
2021/04/27 12:16:25;;;;;;;9.10;5.60;;;20.50;37.80;;;;;;4991173;28;20034;-86
2021/04/27 12:19:01;;;;;;;10.52;6.30;;;20.50;37.30;;;;;;4992777;28;20029;-85
2021/04/27 12:21:38;;;;;;;9.25;5.88;;;20.50;37.10;;;;;;4991572;28;20554;-85
2021/04/27 12:24:11;;;;;;;8.57;5.53;;;20.60;36.40;;;;;;4990022;28;20628;-86
2021/04/27 12:26:39;;;;;;;9.57;5.30;;;20.50;36.20;;;;;;4973780;28;20106;-85
2021/04/27 12:29:05;;;;;;;9.60;6.00;;;20.70;36.30;;;;;;4989607;28;20084;-85
2021/04/27 12:31:33;;;;;;;10.40;5.78;;;20.40;35.80;;;;;;4991560;28;20022;-85
2021/04/27 12:34:06;;;;;;;10.95;5.93;;;20.80;35.40;;;;;;4990413;28;20030;-86
2021/04/27 12:36:46;;;;;;;9.00;5.68;;;21.00;36.40;;;;;;4989263;28;20072;-85
2021/04/27 12:39:29;;;;;;;10.25;5.85;;;21.30;36.30;;;;;;4970984;28;20042;-84
2021/04/27 12:41:58;;;;;;;9.77;5.32;;;21.30;35.70;;;;;;4988022;28;20027;-86
2021/04/27 12:44:32;;;;;;;9.73;6.00;;;21.60;36.40;;;;;;4980194;28;20100;-86
2021/04/27 12:47:05;;;;;;;13.18;6.13;;;22.10;35.40;;;;;;4977802;28;20038;-86
2021/04/27 12:49:33;;;;;;;11.60;5.93;;;21.80;36.10;;;;;;4987194;28;20388;-85
2021/04/27 12:52:15;;;;;;;10.73;5.80;;;21.20;35.50;;;;;;4981319;28;20038;-85
2021/04/27 12:54:42;;;;;;;11.77;6.70;;;21.50;36.10;;;;;;4969916;28;20247;-86
2021/04/27 12:57:09;;;;;;;11.27;5.78;;;21.80;35.70;;;;;;4990285;28;20033;-86
2021/04/27 12:59:37;;;;;;;10.77;5.90;;;22.20;35.70;;;;;;4974337;28;20376;-86
2021/04/27 13:02:13;;;;;;;9.35;5.30;;;22.40;35.40;;;;;;4984818;28;20031;-87
2021/04/27 13:04:45;;;;;;;10.20;6.07;;;22.50;35.00;;;;;;4985041;28;20476;-86
2021/04/27 13:07:42;;;;;;;12.32;5.97;;;22.40;35.30;;;;;;4965685;28;20026;-86
2021/04/27 13:10:11;;;;;;;8.00;5.63;;;23.00;34.40;;;;;;4953244;28;20089;-87
2021/04/27 13:12:38;;;;;;;8.50;5.65;;;23.10;34.10;;;;;;4980318;28;20322;-85